Time;durP1;ratioP1;P1;durP2;ratioP2;P2;SDS_P1;SDS_P2;PMS_P1;PMS_P2;Temp;Humidity;BMP_temperature;BMP_pressure;BME280_temperature;BME280_humidity;BME280_pressure;Samples;Min_cycle;Max_cycle;Signal;HPM_P1;HPM_P2
2022/05/25 00:01:23;;;;;;;6.08;2.52;;;;;;;13.62;86.76;151075.75;1734195;82;21671;-64
2022/05/25 00:03:51;;;;;;;4.90;2.70;;;;;;;13.63;86.62;151078.34;1734198;82;21022;-61
2022/05/25 00:06:18;;;;;;;5.83;2.50;;;;;;;13.63;86.86;151078.34;1734347;82;21061;-60
2022/05/25 00:08:46;;;;;;;5.05;2.87;;;;;;;13.65;86.62;151083.55;1724140;82;21248;-60
2022/05/25 00:11:14;;;;;;;3.92;2.50;;;;;;;13.61;86.68;151073.14;1704763;84;21476;-60
2022/05/25 00:13:41;;;;;;;4.92;2.62;;;;;;;13.63;86.74;151078.34;1704735;84;21371;-60
2022/05/25 00:16:08;;;;;;;6.42;2.70;;;;;;;13.61;86.80;151074.42;1705070;84;20977;-60
2022/05/25 00:18:36;;;;;;;6.95;2.60;;;;;;;13.59;86.68;151069.22;1704849;84;21030;-60
2022/05/25 00:21:03;;;;;;;3.90;2.60;;;;;;;13.55;86.93;151057.50;1677015;84;21470;-60
2022/05/25 00:23:30;;;;;;;3.62;2.50;;;;;;;13.61;86.87;151073.14;1704921;84;21442;-60
2022/05/25 00:25:57;;;;;;;4.90;2.52;;;;;;;13.59;86.82;151067.91;1704927;84;21041;-60
2022/05/25 00:28:25;;;;;;;3.95;2.65;;;;;;;13.57;86.65;151062.70;1704953;84;20977;-60
2022/05/25 00:30:52;;;;;;;6.10;2.83;;;;;;;13.52;86.92;151051.03;1704685;84;21315;-61
2022/05/25 00:33:21;;;;;;;6.72;2.90;;;;;;;13.54;86.98;151054.91;1728831;82;21243;-60
2022/05/25 00:35:48;;;;;;;4.87;2.90;;;;;;;13.53;87.15;151052.31;1734252;82;21061;-60
2022/05/25 00:38:15;;;;;;;4.10;3.15;;;;;;;13.57;87.28;151062.70;1734217;82;21069;-58
2022/05/25 00:40:44;;;;;;;4.17;3.15;;;;;;;13.56;87.12;151061.44;1733875;82;21053;-59
2022/05/25 00:43:13;;;;;;;3.77;3.00;;;;;;;13.55;87.12;151057.50;1733920;82;21112;-61
2022/05/25 00:45:50;;;;;;;6.37;3.22;;;;;;;13.51;87.14;151047.11;1734545;82;21474;-60
2022/05/25 00:48:33;;;;;;;3.95;2.85;;;;;;;13.46;87.30;151036.72;1734259;82;21388;-60
2022/05/25 00:51:13;;;;;;;6.87;3.10;;;;;;;13.39;87.58;151018.48;1733840;82;21022;-59
2022/05/25 00:53:56;;;;;;;7.40;2.85;;;;;;;13.37;87.84;151013.23;1733869;82;21034;-59
2022/05/25 00:56:24;;;;;;;5.75;3.20;;;;;;;13.36;88.12;151010.64;1734091;82;21497;-59
2022/05/25 00:59:15;;;;;;;5.05;3.37;;;;;;;13.36;88.06;151010.64;1734021;82;21254;-63
2022/05/25 01:01:42;;;;;;;5.97;2.80;;;;;;;13.37;88.49;151013.23;1733725;82;20970;-63
2022/05/25 01:04:10;;;;;;;4.67;2.77;;;;;;;13.41;88.33;151023.69;1734040;82;21072;-63
2022/05/25 01:07:21;;;;;;;3.87;3.15;;;;;;;13.41;88.64;151023.69;1734063;82;21407;-59
2022/05/25 01:10:22;;;;;;;4.33;2.83;;;;;;;13.42;88.52;151024.95;1711564;82;21056;-60
2022/05/25 01:12:58;;;;;;;5.37;2.87;;;;;;;13.45;88.82;151032.80;1704488;84;21588;-59
2022/05/25 01:15:28;;;;;;;;;;;;;;;13.39;88.93;151018.48;1706798;84;20998;-60
2022/05/25 01:18:12;;;;;;;3.02;2.72;;;;;;;13.42;88.85;151024.95;1705016;84;20254;-60
2022/05/25 01:20:49;;;;;;;4.27;2.90;;;;;;;13.39;89.32;151018.48;1705115;84;21712;-60
2022/05/25 01:23:42;;;;;;;6.25;3.00;;;;;;;13.39;89.32;151018.48;1704622;84;21535;-60
2022/05/25 01:26:37;;;;;;;4.20;2.90;;;;;;;13.39;89.48;151018.48;1704787;84;21297;-59
2022/05/25 01:29:57;;;;;;;3.30;2.58;;;;;;;13.43;89.28;151028.92;1704786;84;21036;-60
2022/05/25 01:32:31;;;;;;;3.83;2.83;;;;;;;13.43;89.53;151028.92;1717625;82;21026;-60
2022/05/25 01:35:24;;;;;;;5.03;2.47;;;;;;;13.44;89.46;151031.52;1733808;82;21062;-61
2022/05/25 01:37:59;;;;;;;3.10;2.62;;;;;;;13.44;89.49;151031.52;1734254;82;20986;-60
2022/05/25 01:40:46;;;;;;;5.60;2.52;;;;;;;13.43;89.52;151027.59;1734666;82;21222;-61
2022/05/25 01:43:18;;;;;;;7.83;2.85;;;;;;;13.43;89.43;151027.59;1733909;82;21021;-60
2022/05/25 01:45:50;;;;;;;6.40;2.75;;;;;;;13.42;89.44;151026.28;1734541;82;20954;-60
2022/05/25 01:48:18;;;;;;;3.33;2.60;;;;;;;13.43;89.33;151027.59;1734471;82;20986;-60
2022/05/25 01:50:53;;;;;;;3.22;2.70;;;;;;;13.42;89.56;151026.28;1734575;82;20981;-60
2022/05/25 01:53:22;;;;;;;4.05;2.47;;;;;;;13.45;89.22;151034.13;1734330;82;21509;-60
2022/05/25 01:55:54;;;;;;;3.52;2.40;;;;;;;13.43;89.18;151028.92;1734284;82;21459;-61
2022/05/25 01:58:22;;;;;;;5.47;2.60;;;;;;;13.44;89.02;151030.20;1734425;82;21419;-60
2022/05/25 02:00:56;;;;;;;4.95;2.85;;;;;;;13.42;89.13;151026.28;1734282;82;20958;-60
2022/05/25 02:06:44;;;;;;;3.08;2.52;;;;;;;13.42;88.88;151026.28;1734235;82;21254;-60
2022/05/25 02:09:36;;;;;;;5.08;2.95;;;;;;;13.42;88.58;151026.28;1692497;82;21033;-60
2022/05/25 02:12:54;;;;;;;4.60;2.72;;;;;;;13.41;88.76;151023.69;1702134;84;21009;-60
2022/05/25 02:15:39;;;;;;;2.60;2.27;;;;;;;13.38;88.79;151015.89;1702151;84;21047;-61
2022/05/25 02:18:25;;;;;;;5.87;2.65;;;;;;;13.38;88.83;151014.56;1687449;84;21077;-61
2022/05/25 02:21:18;;;;;;;3.47;2.45;;;;;;;13.38;89.05;151015.89;1702467;84;22724;-64
2022/05/25 02:24:09;;;;;;;4.15;3.35;;;;;;;13.43;88.81;151027.59;1662524;84;21033;-61
2022/05/25 02:26:54;;;;;;;5.15;3.25;;;;;;;13.46;89.12;151036.72;1645660;84;21022;-61
2022/05/25 02:29:38;;;;;;;16.07;7.42;;;;;;;13.52;88.77;151049.72;1700638;84;21446;-61
2022/05/25 02:32:16;;;;;;;21.30;9.28;;;;;;;13.55;88.66;151058.83;1711568;82;21011;-61
2022/05/25 02:34:47;;;;;;;16.55;7.78;;;;;;;13.58;88.54;151065.31;1730786;82;21260;-59
2022/05/25 02:37:13;;;;;;;22.17;9.83;;;;;;;13.65;88.31;151082.22;1731378;82;21038;-59
2022/05/25 02:39:45;;;;;;;32.55;15.85;;;;;;;13.70;88.12;151095.22;1731459;82;21558;-59
2022/05/25 02:42:15;;;;;;;55.55;21.12;;;;;;;13.79;87.84;151117.33;1731574;82;20935;-59
2022/05/25 02:44:42;;;;;;;52.65;20.82;;;;;;;13.83;87.55;151127.77;1731312;82;21041;-59
2022/05/25 02:47:10;;;;;;;46.35;17.40;;;;;;;13.91;87.24;151148.56;1731439;82;21874;-65
2022/05/25 02:49:38;;;;;;;28.47;13.08;;;;;;;13.98;86.97;151165.48;1731528;82;21042;-63
2022/05/25 02:52:07;;;;;;;15.60;6.87;;;;;;;14.06;86.64;151185.00;1731844;82;21030;-59
2022/05/25 02:54:35;;;;;;;8.50;4.90;;;;;;;14.12;86.23;151200.59;1731518;82;21006;-64
2022/05/25 02:57:04;;;;;;;9.28;4.67;;;;;;;14.18;86.00;151216.20;1731316;82;21053;-60
2022/05/25 02:59:31;;;;;;;8.75;4.62;;;;;;;14.21;85.67;151224.00;1731821;82;21447;-63
2022/05/25 03:01:58;;;;;;;12.05;4.65;;;;;;;14.26;85.45;151235.72;1731724;82;21053;-60
2022/05/25 03:04:25;;;;;;;8.50;4.40;;;;;;;14.29;85.21;151243.53;1731702;82;20986;-64
2022/05/25 03:06:52;;;;;;;14.95;6.97;;;;;;;14.36;85.24;151260.45;1731310;82;21005;-64
2022/05/25 03:09:19;;;;;;;62.25;30.65;;;;;;;14.45;84.91;151283.84;1715008;82;20989;-60
2022/05/25 03:11:45;;;;;;;42.45;18.65;;;;;;;14.53;84.54;151304.70;1702295;84;21517;-63
2022/05/25 03:14:12;;;;;;;17.95;8.48;;;;;;;14.57;83.95;151315.09;1702102;84;21080;-64
2022/05/25 03:16:39;;;;;;;16.00;5.58;;;;;;;14.59;83.62;151319.03;1701967;84;21088;-64
2022/05/25 03:19:07;;;;;;;8.75;4.08;;;;;;;14.55;82.79;151309.91;1702148;84;21519;-63
2022/05/25 03:21:34;;;;;;;7.72;3.60;;;;;;;14.50;83.12;151296.91;1702391;84;21455;-64
2022/05/25 03:24:01;;;;;;;5.28;3.30;;;;;;;14.52;83.26;151300.78;1702178;84;22101;-60
2022/05/25 03:26:28;;;;;;;6.55;3.45;;;;;;;14.57;83.44;151315.09;1701617;84;21332;-59
2022/05/25 03:28:56;;;;;;;5.15;3.08;;;;;;;14.66;83.05;151335.91;1702382;84;21077;-63
2022/05/25 03:31:23;;;;;;;3.55;3.02;;;;;;;14.73;82.95;151354.22;1702642;82;21044;-63
2022/05/25 03:33:50;;;;;;;4.37;2.92;;;;;;;14.81;82.55;151375.02;1731570;82;20997;-63
2022/05/25 03:36:22;;;;;;;3.22;2.87;;;;;;;14.86;82.45;151388.03;1731351;82;23129;-63
2022/05/25 03:38:46;;;;;;;4.22;3.10;;;;;;;14.95;82.19;151408.88;1730572;82;20987;-62
2022/05/25 03:41:17;;;;;;;6.78;3.22;;;;;;;15.06;82.15;151437.48;1731548;82;21094;-58
2022/05/25 03:43:42;;;;;;;5.17;3.10;;;;;;;15.19;81.80;151470.03;1731389;82;21451;-59
2022/05/25 03:46:09;;;;;;;5.80;2.95;;;;;;;15.31;81.54;151499.97;1731704;82;21004;-63
2022/05/25 03:48:36;;;;;;;7.15;3.05;;;;;;;15.43;80.71;151529.92;1731541;82;21835;-62
2022/05/25 03:51:03;;;;;;;3.90;2.95;;;;;;;15.52;80.48;151552.06;1731650;82;20963;-59
2022/05/25 03:53:30;;;;;;;4.00;2.95;;;;;;;15.62;79.19;151578.12;1731531;82;21074;-62
2022/05/25 03:55:58;;;;;;;6.45;3.20;;;;;;;15.69;78.53;151596.34;1731681;82;21097;-59
2022/05/25 03:58:25;;;;;;;4.17;3.20;;;;;;;15.79;77.68;151619.78;1731424;82;20978;-60
2022/05/25 04:00:52;;;;;;;4.45;2.98;;;;;;;15.87;77.05;151640.64;1731566;82;21482;-59
2022/05/25 04:03:19;;;;;;;8.85;3.10;;;;;;;15.96;76.67;151664.13;1731886;82;20927;-59
2022/05/25 04:05:46;;;;;;;3.45;2.98;;;;;;;16.04;76.26;151685.00;1731759;82;21038;-63
2022/05/25 04:08:13;;;;;;;5.45;3.30;;;;;;;16.15;75.78;151712.34;1735368;81;21061;-59
2022/05/25 04:10:40;;;;;;;3.58;2.30;;;;;;;16.24;75.34;151734.45;1767802;81;21543;-64
2022/05/25 04:13:07;;;;;;;4.58;2.42;;;;;;;16.35;74.84;151760.53;1768008;81;21393;-58
2022/05/25 04:15:34;;;;;;;4.53;2.47;;;;;;;16.49;74.15;151797.03;1768109;81;20936;-62
2022/05/25 04:18:02;;;;;;;3.55;2.45;;;;;;;16.61;73.52;151827.00;1768770;81;21024;-62
2022/05/25 04:20:32;;;;;;;2.35;2.15;;;;;;;16.72;72.55;151855.66;1770052;81;21015;-62
2022/05/25 04:23:00;;;;;;;5.50;2.72;;;;;;;16.85;71.94;151888.23;1768821;81;21051;-58
2022/05/25 04:25:27;;;;;;;4.90;2.27;;;;;;;16.99;71.04;151922.19;1768667;81;21242;-58
2022/05/25 04:27:56;;;;;;;3.75;2.83;;;;;;;17.09;70.35;151948.23;1767999;81;20908;-60
2022/05/25 04:30:26;;;;;;;5.72;3.00;;;;;;;17.26;69.93;151989.97;1767802;81;21019;-62
2022/05/25 04:32:53;;;;;;;5.75;2.60;;;;;;;17.39;69.10;152023.89;1743874;81;21089;-63
2022/05/25 04:35:21;;;;;;;3.83;2.58;;;;;;;17.50;68.72;152049.94;1730828;82;21033;-59
2022/05/25 04:37:49;;;;;;;5.00;2.60;;;;;;;17.62;68.21;152081.25;1730788;82;21503;-64
2022/05/25 04:40:20;;;;;;;3.50;2.20;;;;;;;17.74;66.88;152112.53;1730477;82;21435;-60
2022/05/25 04:42:47;;;;;;;5.90;2.12;;;;;;;17.85;66.10;152139.91;1730404;82;21132;-64
2022/05/25 04:45:14;;;;;;;13.40;3.27;;;;;;;17.98;65.64;152171.23;1731109;82;21050;-60
2022/05/25 04:47:43;;;;;;;7.97;2.30;;;;;;;18.12;65.08;152206.50;1730962;81;21926;-63
2022/05/25 04:50:11;;;;;;;3.47;2.00;;;;;;;18.26;64.04;152243.03;1730761;82;21856;-59
2022/05/25 04:52:38;;;;;;;4.78;2.12;;;;;;;18.40;63.55;152276.94;1730709;82;21089;-58
2022/05/25 04:55:07;;;;;;;5.83;2.15;;;;;;;18.55;62.44;152314.77;1730802;82;21018;-62
2022/05/25 04:57:34;;;;;;;2.70;1.87;;;;;;;18.67;61.44;152346.09;1730963;82;21080;-63
2022/05/25 05:00:04;;;;;;;2.70;1.90;;;;;;;18.80;60.72;152378.72;1730952;82;21050;-63
2022/05/25 05:02:32;;;;;;;4.33;1.87;;;;;;;18.91;59.51;152406.13;1730697;82;21511;-63
2022/05/25 05:04:59;;;;;;;3.27;2.20;;;;;;;19.02;58.64;152433.59;1730998;82;21068;-59
2022/05/25 05:07:33;;;;;;;3.72;1.82;;;;;;;19.17;58.09;152471.44;1731019;82;20998;-59
2022/05/25 05:10:04;;;;;;;2.98;1.95;;;;;;;19.33;57.69;152511.89;1760242;81;21024;-60
2022/05/25 05:12:31;;;;;;;2.85;2.02;;;;;;;19.51;57.27;152556.28;1764607;81;21042;-60
2022/05/25 05:14:58;;;;;;;3.70;1.95;;;;;;;19.67;56.10;152598.08;1764819;81;22156;-64
2022/05/25 05:17:25;;;;;;;2.12;1.70;;;;;;;19.83;55.10;152637.28;1734950;81;20973;-63
2022/05/25 05:19:56;;;;;;;1.98;1.70;;;;;;;19.96;53.84;152669.97;1763522;81;20952;-63
2022/05/25 05:22:23;;;;;;;3.80;1.65;;;;;;;20.12;52.51;152710.44;1734953;81;21028;-64
2022/05/25 05:24:50;;;;;;;2.72;1.90;;;;;;;20.26;51.73;152747.03;1764784;81;21059;-63
2022/05/25 05:27:17;;;;;;;3.83;1.70;;;;;;;20.40;51.00;152780.97;1764657;81;22272;-60
2022/05/25 05:29:45;;;;;;;4.05;1.70;;;;;;;20.50;50.43;152807.13;1764776;81;21445;-59
2022/05/25 05:32:12;;;;;;;5.55;1.80;;;;;;;20.64;49.42;152841.06;1750292;81;21587;-59
2022/05/25 05:34:41;;;;;;;2.37;1.57;;;;;;;20.78;48.79;152876.33;1743762;81;22259;-64
2022/05/25 05:37:15;;;;;;;2.92;1.50;;;;;;;20.94;48.18;152918.20;1710281;82;21027;-64
2022/05/25 05:39:45;;;;;;;;;;;;;;;21.12;47.57;152963.98;1714452;81;21897;-64
2022/05/25 05:42:14;;;;;;;3.98;1.60;;;;;;;21.28;47.05;153004.50;1764249;81;20118;-59
2022/05/25 05:44:46;;;;;;;2.20;1.47;;;;;;;21.46;46.60;153048.94;1764834;81;21035;-64
2022/05/25 05:47:17;;;;;;;4.55;1.98;;;;;;;21.64;46.26;153093.34;1763617;81;21067;-64
2022/05/25 05:49:44;;;;;;;3.55;2.00;;;;;;;21.79;47.88;153131.36;1739683;81;21057;-63
2022/05/25 05:52:11;;;;;;;4.10;2.20;;;;;;;21.92;48.41;153164.03;1730076;83;21244;-63
2022/05/25 05:54:38;;;;;;;3.62;1.90;;;;;;;22.01;48.41;153188.89;1730304;82;21427;-59
2022/05/25 05:57:06;;;;;;;3.77;1.90;;;;;;;22.12;48.61;153215.02;1730394;82;21061;-62
2022/05/25 05:59:34;;;;;;;3.25;2.20;;;;;;;22.26;48.73;153251.66;1730510;82;21177;-58
2022/05/25 06:02:00;;;;;;;3.17;1.70;;;;;;;22.35;48.98;153272.56;1730951;82;21089;-59
2022/05/25 06:04:28;;;;;;;2.75;1.90;;;;;;;22.44;49.26;153296.14;1730044;82;21400;-60
2022/05/25 06:06:55;;;;;;;7.15;2.47;;;;;;;22.49;49.34;153309.25;1740965;81;21080;-66
2022/05/25 06:09:22;;;;;;;4.53;1.98;;;;;;;22.50;49.46;153311.88;1732983;81;21686;-62
2022/05/25 06:11:51;;;;;;;2.98;1.85;;;;;;;22.52;49.40;153317.09;1732132;81;21457;-64
2022/05/25 06:14:19;;;;;;;3.55;2.00;;;;;;;22.51;49.56;153314.48;1750581;81;21341;-63
2022/05/25 06:19:33;;;;;;;5.75;1.77;;;;;;;22.51;50.16;153313.16;1740246;81;21113;-64
2022/05/25 06:22:12;;;;;;;3.37;2.05;;;;;;;22.52;50.51;153317.09;1735039;81;21043;-61
2022/05/25 06:24:43;;;;;;;1.95;1.60;;;;;;;22.55;50.50;153324.94;1728387;81;20961;-62
2022/05/25 06:27:14;;;;;;;1.85;1.72;;;;;;;22.61;50.73;153340.63;1726878;82;20971;-66
2022/05/25 06:29:44;;;;;;;4.25;1.82;;;;;;;22.61;50.47;153340.63;1722581;82;21516;-66
2022/05/25 06:32:12;;;;;;;4.83;1.80;;;;;;;22.67;50.59;153353.73;1721879;81;21040;-65
2022/05/25 06:34:39;;;;;;;3.25;1.95;;;;;;;22.75;50.81;153374.66;1707797;82;21454;-66
2022/05/25 06:37:08;;;;;;;2.77;1.82;;;;;;;22.84;51.30;153396.91;1710642;82;21076;-66
2022/05/25 06:39:36;;;;;;;3.10;1.70;;;;;;;22.93;51.81;153419.14;1721521;82;21529;-65
2022/05/25 06:42:05;;;;;;;2.67;1.92;;;;;;;23.05;51.75;153450.52;1709804;82;21207;-66
2022/05/25 06:44:33;;;;;;;3.12;1.70;;;;;;;23.12;51.50;153467.53;1708158;82;21104;-66
2022/05/25 06:47:01;;;;;;;5.17;1.87;;;;;;;23.21;51.31;153489.78;1724792;81;21149;-63
2022/05/25 06:49:28;;;;;;;3.12;2.00;;;;;;;23.24;50.73;153497.64;1725613;82;21061;-66
2022/05/25 06:51:56;;;;;;;3.12;1.67;;;;;;;23.24;50.57;153498.97;1709864;82;21320;-65
2022/05/25 06:54:24;;;;;;;3.37;1.70;;;;;;;23.26;49.95;153502.91;1720523;82;21251;-65
2022/05/25 06:56:51;;;;;;;4.42;1.92;;;;;;;23.25;50.07;153500.25;1706717;82;21602;-66
2022/05/25 06:59:19;;;;;;;1.85;1.42;;;;;;;23.18;50.82;153484.56;1702004;82;21032;-67
2022/05/25 07:01:47;;;;;;;2.87;1.80;;;;;;;23.14;51.43;153472.77;1719633;82;21086;-65
2022/05/25 07:04:16;;;;;;;4.78;1.65;;;;;;;23.12;52.01;153468.88;1730132;82;21010;-66
2022/05/25 07:06:43;;;;;;;5.80;2.20;;;;;;;23.12;52.52;153468.88;1731418;82;20974;-66
2022/05/25 07:09:10;;;;;;;5.42;1.80;;;;;;;23.11;53.02;153466.25;1728089;81;21481;-65
2022/05/25 07:11:41;;;;;;;6.40;1.87;;;;;;;23.16;53.01;153479.33;1720526;82;21059;-64
2022/05/25 07:14:08;;;;;;;3.52;1.70;;;;;;;23.25;52.26;153500.25;1712039;82;21025;-64
2022/05/25 07:16:36;;;;;;;2.60;1.80;;;;;;;23.36;52.49;153529.11;1714353;82;21064;-65
2022/05/25 07:19:04;;;;;;;2.98;1.90;;;;;;;23.40;52.79;153539.58;1731553;81;21214;-65
2022/05/25 07:21:31;;;;;;;3.92;2.20;;;;;;;23.38;53.36;153534.34;1731133;82;21062;-65
2022/05/25 07:23:59;;;;;;;4.05;1.85;;;;;;;23.41;53.28;153542.19;1713579;81;21069;-64
2022/05/25 07:26:28;;;;;;;1.98;1.70;;;;;;;23.44;52.97;153550.03;1732211;81;21629;-66
2022/05/25 07:28:55;;;;;;;5.65;2.00;;;;;;;23.44;52.30;153550.03;1737506;81;21025;-66
2022/05/25 07:31:29;;;;;;;2.77;1.80;;;;;;;23.42;52.00;153543.47;1728244;81;22231;-64
2022/05/25 07:34:06;;;;;;;2.17;1.73;;;;;;;23.41;51.87;153542.19;1707552;81;21070;-65
2022/05/25 07:36:35;;;;;;;2.50;1.70;;;;;;;23.38;52.35;153534.34;1705157;82;21077;-65
2022/05/25 07:39:08;;;;;;;1.92;1.70;;;;;;;23.38;52.41;153534.34;1740834;81;21047;-64
2022/05/25 07:41:39;;;;;;;3.20;1.77;;;;;;;23.36;52.29;153529.11;1738934;81;21360;-65
2022/05/25 07:44:09;;;;;;;2.75;1.62;;;;;;;23.26;52.33;153502.91;1728702;81;21202;-64
2022/05/25 07:46:37;;;;;;;2.55;2.15;;;;;;;23.15;52.70;153476.72;1738174;81;21056;-64
2022/05/25 07:49:04;;;;;;;2.85;1.62;;;;;;;23.05;52.83;153450.52;1735859;81;21030;-65
2022/05/25 07:51:31;;;;;;;2.37;1.80;;;;;;;22.97;53.21;153429.59;1744792;81;21122;-64
2022/05/25 07:53:59;;;;;;;3.30;1.60;;;;;;;22.96;53.87;153426.98;1737272;81;21111;-64
2022/05/25 07:56:36;;;;;;;3.65;1.77;;;;;;;23.03;53.72;153445.28;1740611;81;21069;-64
2022/05/25 07:59:07;;;;;;;4.28;1.98;;;;;;;23.08;52.90;153458.36;1739480;81;21101;-63
2022/05/25 08:07:15;;;;;;;5.90;1.85;;;;;;;23.26;52.51;153502.91;1742485;81;21136;-63
2022/05/25 08:09:42;;;;;;;2.85;1.80;;;;;;;23.28;52.17;153508.14;1745966;81;21230;-65
2022/05/25 08:12:11;;;;;;;1.72;1.52;;;;;;;23.29;51.82;153510.77;1737350;81;21115;-65
2022/05/25 08:14:38;;;;;;;3.42;1.50;;;;;;;23.25;51.53;153500.25;1741977;81;21091;-64
2022/05/25 08:17:06;;;;;;;2.87;1.80;;;;;;;23.22;51.69;153492.41;1735289;81;21014;-65
2022/05/25 08:19:35;;;;;;;3.75;1.72;;;;;;;23.18;51.85;153483.22;1738252;81;21172;-65
2022/05/25 08:22:02;;;;;;;1.95;1.47;;;;;;;23.18;51.93;153484.56;1741548;81;21228;-64
2022/05/25 08:24:30;;;;;;;2.30;1.80;;;;;;;23.24;51.46;153497.64;1739619;81;21566;-65
2022/05/25 08:26:58;;;;;;;1.70;1.35;;;;;;;23.28;51.09;153509.48;1735857;81;21049;-65
2022/05/25 08:29:25;;;;;;;2.20;1.35;;;;;;;23.30;50.47;153514.72;1738004;81;20937;-62
2022/05/25 08:31:55;;;;;;;1.67;1.30;;;;;;;23.38;50.36;153533.02;1736305;81;21061;-64
2022/05/25 08:34:23;;;;;;;2.67;1.52;;;;;;;23.48;49.69;153557.88;1736149;81;21241;-62
2022/05/25 08:36:51;;;;;;;4.08;1.65;;;;;;;23.58;49.30;153584.09;1736804;81;21001;-64
2022/05/25 08:39:19;;;;;;;5.80;1.30;;;;;;;23.65;48.33;153602.39;1737474;81;21077;-65
2022/05/25 08:41:46;;;;;;;2.52;1.32;;;;;;;23.70;48.15;153615.47;1738360;81;21077;-65
2022/05/25 08:44:15;;;;;;;2.05;1.30;;;;;;;23.79;47.95;153636.45;1737083;81;21137;-64
2022/05/25 08:49:25;;;;;;;2.50;1.20;;;;;;;23.87;47.80;153657.38;1709727;82;21068;-65
2022/05/25 08:51:55;;;;;;;2.12;1.07;;;;;;;23.88;47.44;153659.98;1729016;82;21587;-63
2022/05/25 08:54:24;;;;;;;3.33;1.20;;;;;;;23.83;47.50;153646.91;1709002;82;21044;-64
2022/05/25 08:57:09;;;;;;;4.95;1.20;;;;;;;23.81;47.47;153642.97;1726613;82;21087;-64
2022/05/25 08:59:45;;;;;;;2.17;1.35;;;;;;;23.81;47.24;153642.97;1727950;82;21008;-64
2022/05/25 09:02:52;;;;;;;5.40;1.30;;;;;;;23.80;45.98;153639.06;1734780;82;21035;-64
2022/05/25 09:05:38;;;;;;;3.33;1.15;;;;;;;23.73;45.41;153622.03;1675538;84;21080;-64
2022/05/25 09:08:15;;;;;;;4.62;1.10;;;;;;;23.71;44.95;153618.09;1682998;84;21104;-65
2022/05/25 09:10:59;;;;;;;2.05;1.00;;;;;;;23.62;45.49;153594.55;1699932;84;21474;-65
2022/05/25 09:13:33;;;;;;;3.25;1.92;;;;;;;23.58;45.56;153585.37;1688523;84;21229;-64
2022/05/25 09:16:15;;;;;;;4.55;1.70;;;;;;;23.55;47.33;153576.23;1682936;84;21023;-66
2022/05/25 09:19:14;;;;;;;4.50;1.30;;;;;;;23.50;48.96;153563.11;1712736;82;21592;-64
2022/05/25 09:21:54;;;;;;;3.58;1.67;;;;;;;23.36;49.72;153529.11;1712490;82;21088;-64
2022/05/25 09:24:23;;;;;;;2.98;1.60;;;;;;;23.28;49.55;153508.14;1709535;82;21096;-61
2022/05/25 09:26:51;;;;;;;2.17;1.52;;;;;;;23.23;49.84;153495.02;1725254;82;21185;-63
2022/05/25 09:29:18;;;;;;;3.30;1.67;;;;;;;23.15;50.41;153475.39;1732769;82;21071;-65
2022/05/25 09:32:10;;;;;;;4.47;1.57;;;;;;;23.13;51.26;153470.16;1714174;82;20992;-62
2022/05/25 09:35:06;;;;;;;3.80;1.50;;;;;;;23.10;51.51;153462.31;1700948;82;21629;-63
2022/05/25 09:38:05;;;;;;;3.40;1.20;;;;;;;23.09;51.11;153460.98;1711300;82;21011;-67
2022/05/25 09:40:49;;;;;;;2.08;1.40;;;;;;;23.04;51.15;153447.91;1708599;82;21228;-64
2022/05/25 09:43:23;;;;;;;3.40;1.67;;;;;;;22.98;51.38;153432.22;1708384;82;21078;-64
2022/05/25 09:45:54;;;;;;;3.00;1.35;;;;;;;22.95;51.92;153424.38;1729239;82;21070;-65
2022/05/25 09:48:31;;;;;;;2.05;1.40;;;;;;;22.95;51.78;153424.38;1727481;82;21044;-64
2022/05/25 09:51:27;;;;;;;4.40;1.40;;;;;;;22.98;52.25;153432.22;1702738;83;21015;-65
2022/05/25 09:54:30;;;;;;;1.40;1.25;;;;;;;23.05;51.93;153450.52;1707053;82;22292;-65
2022/05/25 09:57:08;;;;;;;4.05;1.07;;;;;;;23.07;49.64;153455.75;1693916;83;21471;-64
2022/05/25 09:59:50;;;;;;;4.60;1.90;;;;;;;23.08;48.17;153458.36;1715103;82;21076;-66
2022/05/25 10:02:43;;;;;;;1.90;1.40;;;;;;;23.00;48.76;153438.78;1705881;83;21056;-65
2022/05/25 10:05:23;;;;;;;4.30;1.40;;;;;;;22.97;49.68;153429.59;1708347;81;20996;-66
2022/05/25 10:07:54;;;;;;;4.53;1.42;;;;;;;22.98;50.37;153433.50;1718554;82;21222;-66
2022/05/25 10:10:37;;;;;;;2.83;1.20;;;;;;;22.95;51.27;153424.38;1719145;82;21478;-64
2022/05/25 10:13:17;;;;;;;3.95;1.22;;;;;;;22.93;51.43;153419.14;1716118;82;21474;-65
2022/05/25 10:15:51;;;;;;;4.85;1.20;;;;;;;22.94;51.29;153421.77;1696054;83;21051;-65
2022/05/25 10:18:14;;;;;;;5.35;1.00;;;;;;;22.92;49.97;153417.81;1721004;81;21631;-65
2022/05/25 10:20:48;;;;;;;1.65;1.10;;;;;;;22.86;50.08;153403.41;1706635;83;21272;-65
2022/05/25 10:23:23;;;;;;;3.20;1.33;;;;;;;22.72;49.67;153366.81;1704107;83;21085;-64
2022/05/25 10:26:15;;;;;;;1.47;1.00;;;;;;;22.63;49.43;153343.23;1670977;84;21046;-64
2022/05/25 10:28:50;;;;;;;2.42;1.00;;;;;;;22.54;49.23;153321.00;1720262;83;21032;-64
2022/05/25 10:37:24;;;;;;;2.58;1.45;;;;;;;22.23;47.75;153243.81;1706042;83;21072;-65
2022/05/25 10:39:59;;;;;;;3.45;1.00;;;;;;;22.16;46.30;153225.47;1705439;83;21336;-66
2022/05/25 10:42:43;;;;;;;1.25;1.10;;;;;;;22.14;46.76;153221.58;1677714;85;21086;-65
2022/05/25 10:45:20;;;;;;;1.42;1.12;;;;;;;22.13;47.08;153218.97;1703084;82;21069;-64
2022/05/25 10:48:14;;;;;;;1.42;1.00;;;;;;;22.14;47.04;153220.25;1707491;83;21507;-66
2022/05/25 10:51:01;;;;;;;2.20;1.20;;;;;;;22.12;47.67;153215.02;1678898;84;21069;-66
2022/05/25 10:53:39;;;;;;;4.70;1.15;;;;;;;22.03;48.26;153192.78;1682015;85;21010;-64
2022/05/25 10:56:32;;;;;;;4.87;1.15;;;;;;;21.94;47.84;153170.55;1683972;84;21076;-65
2022/05/25 10:59:24;;;;;;;3.05;1.20;;;;;;;21.80;49.39;153135.25;1677184;85;21542;-64
2022/05/25 11:02:27;;;;;;;2.12;1.22;;;;;;;21.70;52.84;153110.41;1668626;85;21271;-65
2022/05/25 11:05:24;;;;;;;5.17;1.30;;;;;;;21.58;55.29;153079.00;1681800;84;21108;-65
2022/05/25 11:07:55;;;;;;;1.57;1.00;;;;;;;21.47;54.92;153052.83;1682626;84;21054;-64
2022/05/25 11:10:52;;;;;;;1.20;1.10;;;;;;;21.36;55.06;153022.78;1687589;84;21068;-65
2022/05/25 11:13:44;;;;;;;2.15;1.20;;;;;;;21.24;56.37;152994.05;1714449;82;21537;-64
2022/05/25 11:16:40;;;;;;;2.25;1.42;;;;;;;21.11;55.49;152960.05;1721433;81;21498;-65
2022/05/25 11:19:46;;;;;;;2.52;1.90;;;;;;;20.97;57.84;152924.75;1701357;83;20992;-65
2022/05/25 11:22:36;;;;;;;2.30;1.32;;;;;;;20.89;59.60;152905.16;1722330;82;21460;-67
2022/05/25 11:25:43;;;;;;;6.15;1.87;;;;;;;20.84;61.31;152892.09;1722634;81;21595;-65
2022/05/25 11:28:16;;;;;;;2.17;1.60;;;;;;;20.80;62.63;152881.66;1706356;81;21007;-64
2022/05/25 11:31:04;;;;;;;1.82;1.50;;;;;;;20.71;61.36;152860.66;1714256;83;21226;-66
2022/05/25 11:34:01;;;;;;;3.22;1.20;;;;;;;20.59;62.35;152830.63;1716549;82;21534;-64
2022/05/25 11:36:59;;;;;;;;;;;;;;;20.49;62.34;152804.50;1715025;82;21082;-65
2022/05/25 11:39:43;;;;;;;2.37;1.70;;;;;;;20.42;63.38;152786.19;1699109;83;20251;-65
2022/05/25 11:43:06;;;;;;;4.22;1.70;;;;;;;20.33;64.01;152763.97;1721858;81;21146;-64
2022/05/25 11:45:58;;;;;;;2.35;2.00;;;;;;;20.25;64.32;152744.42;1713034;83;21271;-66
2022/05/25 11:48:45;;;;;;;3.77;2.20;;;;;;;20.17;66.62;152723.50;1717601;82;21013;-65
2022/05/25 11:51:40;;;;;;;4.35;2.17;;;;;;;20.02;68.07;152686.95;1694049;83;21080;-64
2022/05/25 11:54:53;;;;;;;3.27;2.02;;;;;;;19.88;69.51;152650.31;1717260;82;21068;-65
2022/05/25 11:57:46;;;;;;;2.00;1.77;;;;;;;19.78;70.03;152624.17;1699670;83;21625;-67
2022/05/25 12:00:37;;;;;;;7.62;2.05;;;;;;;19.64;70.22;152590.25;1714483;83;21265;-66
2022/05/25 12:03:52;;;;;;;7.25;2.17;;;;;;;19.64;71.87;152590.25;1651560;82;21031;-64
2022/05/25 12:06:28;;;;;;;7.80;2.12;;;;;;;19.72;72.23;152611.12;1704070;83;21049;-68
2022/05/25 12:09:23;;;;;;;3.20;2.00;;;;;;;19.79;72.55;152628.11;1704864;83;21109;-66
2022/05/25 12:12:12;;;;;;;2.90;2.10;;;;;;;19.84;71.90;152641.16;1717230;83;35688;-66
2022/05/25 12:15:09;;;;;;;5.20;1.90;;;;;;;19.84;72.54;152639.87;1718341;83;21522;-66
2022/05/25 12:17:58;;;;;;;6.70;2.20;;;;;;;19.82;73.04;152635.94;1705855;83;21557;-64
2022/05/25 12:20:42;;;;;;;4.42;2.15;;;;;;;19.78;72.82;152624.17;1707541;83;21163;-65